Milford, Virginia
Current Conditions -  °F | °C
As of 9:15 AM on Thursday 23 Oct 2014 (Local Time) from KEZF Reporting Station
Broken Clouds Broken Clouds  
Wind Chill: 55°   Ceiling: 6000
Heat Index: 55°   Visibility: 10mi
Dew Point: 44°   Wind: 14mph
Humidity: 64%   Direction: 300°WNW
Pressure: 29.93"   Gusts: 22mph
Location:  38.02°N, 77.37°W
Report Text: KEZF 231315Z AUTO 30012G19KT 280V340 10SM BKN060 BKN070 13/06 A2993 RMK AO2 T01300064
Loading
Personal Weather Stations






























Interactive Weather Map
Tropical Storm Tracking
New forecast layout! Learn more

10-Day Weather Forecast

Advertisements
Track Severe Weather on mobile